sensor_id;sensor_type;location;lat;lon;timestamp;P1;durP1;ratioP1;P2;durP2;ratioP2
18657;SDS011;9458;50.942;5.074;2022-08-19T00:02:17;15.75;;;14.10;;
18657;SDS011;9458;50.942;5.074;2022-08-19T00:04:44;17.65;;;15.15;;
18657;SDS011;9458;50.942;5.074;2022-08-19T00:07:13;15.30;;;13.80;;
18657;SDS011;9458;50.942;5.074;2022-08-19T00:09:41;15.73;;;13.98;;
18657;SDS011;9458;50.942;5.074;2022-08-19T00:12:11;15.60;;;13.98;;
18657;SDS011;9458;50.942;5.074;2022-08-19T00:14:40;15.50;;;14.00;;
18657;SDS011;9458;50.942;5.074;2022-08-19T00:17:12;15.65;;;13.95;;
18657;SDS011;9458;50.942;5.074;2022-08-19T00:19:39;15.70;;;14.13;;
18657;SDS011;9458;50.942;5.074;2022-08-19T00:22:11;15.55;;;13.88;;
18657;SDS011;9458;50.942;5.074;2022-08-19T00:24:44;16.05;;;14.55;;
18657;SDS011;9458;50.942;5.074;2022-08-19T00:27:16;16.80;;;14.95;;
18657;SDS011;9458;50.942;5.074;2022-08-19T00:29:45;16.10;;;14.48;;
18657;SDS011;9458;50.942;5.074;2022-08-19T00:32:14;16.98;;;15.25;;
18657;SDS011;9458;50.942;5.074;2022-08-19T00:34:42;17.15;;;15.45;;
18657;SDS011;9458;50.942;5.074;2022-08-19T00:37:10;17.77;;;15.95;;
18657;SDS011;9458;50.942;5.074;2022-08-19T00:39:41;16.65;;;14.63;;
18657;SDS011;9458;50.942;5.074;2022-08-19T00:42:10;17.65;;;15.85;;
18657;SDS011;9458;50.942;5.074;2022-08-19T00:44:42;17.42;;;15.55;;
18657;SDS011;9458;50.942;5.074;2022-08-19T00:47:10;16.92;;;15.02;;
18657;SDS011;9458;50.942;5.074;2022-08-19T00:49:40;17.92;;;15.63;;
18657;SDS011;9458;50.942;5.074;2022-08-19T00:52:11;18.63;;;16.73;;
18657;SDS011;9458;50.942;5.074;2022-08-19T00:54:41;19.65;;;16.42;;
18657;SDS011;9458;50.942;5.074;2022-08-19T00:57:13;22.23;;;17.67;;
18657;SDS011;9458;50.942;5.074;2022-08-19T00:59:47;19.55;;;17.50;;
18657;SDS011;9458;50.942;5.074;2022-08-19T01:02:23;19.80;;;17.70;;
18657;SDS011;9458;50.942;5.074;2022-08-19T01:04:51;20.20;;;17.70;;
18657;SDS011;9458;50.942;5.074;2022-08-19T01:07:19;21.17;;;18.92;;
18657;SDS011;9458;50.942;5.074;2022-08-19T01:09:46;23.00;;;19.85;;
18657;SDS011;9458;50.942;5.074;2022-08-19T01:12:14;23.17;;;20.67;;
18657;SDS011;9458;50.942;5.074;2022-08-19T01:14:43;24.20;;;20.27;;
18657;SDS011;9458;50.942;5.074;2022-08-19T01:17:15;22.30;;;19.90;;
18657;SDS011;9458;50.942;5.074;2022-08-19T01:19:43;23.55;;;19.38;;
18657;SDS011;9458;50.942;5.074;2022-08-19T01:22:14;25.02;;;20.25;;
18657;SDS011;9458;50.942;5.074;2022-08-19T01:24:48;25.60;;;22.00;;
18657;SDS011;9458;50.942;5.074;2022-08-19T01:27:17;25.23;;;21.30;;
18657;SDS011;9458;50.942;5.074;2022-08-19T01:29:50;25.90;;;21.67;;
18657;SDS011;9458;50.942;5.074;2022-08-19T01:32:19;28.63;;;22.83;;
18657;SDS011;9458;50.942;5.074;2022-08-19T01:34:47;32.42;;;23.92;;
18657;SDS011;9458;50.942;5.074;2022-08-19T01:37:15;29.67;;;23.55;;
18657;SDS011;9458;50.942;5.074;2022-08-19T01:39:43;28.75;;;23.63;;
18657;SDS011;9458;50.942;5.074;2022-08-19T01:42:13;28.65;;;23.40;;
18657;SDS011;9458;50.942;5.074;2022-08-19T01:44:41;26.63;;;23.45;;
18657;SDS011;9458;50.942;5.074;2022-08-19T01:47:08;26.48;;;23.20;;
18657;SDS011;9458;50.942;5.074;2022-08-19T01:49:36;28.75;;;22.65;;
18657;SDS011;9458;50.942;5.074;2022-08-19T01:52:04;29.38;;;24.48;;
18657;SDS011;9458;50.942;5.074;2022-08-19T01:54:32;28.83;;;23.38;;
18657;SDS011;9458;50.942;5.074;2022-08-19T01:57:02;28.52;;;23.55;;
18657;SDS011;9458;50.942;5.074;2022-08-19T01:59:36;31.15;;;22.67;;
18657;SDS011;9458;50.942;5.074;2022-08-19T02:02:04;30.92;;;24.88;;
18657;SDS011;9458;50.942;5.074;2022-08-19T02:04:33;27.90;;;22.80;;
18657;SDS011;9458;50.942;5.074;2022-08-19T02:07:03;31.63;;;24.60;;
18657;SDS011;9458;50.942;5.074;2022-08-19T02:09:32;34.63;;;25.33;;
18657;SDS011;9458;50.942;5.074;2022-08-19T02:12:00;32.70;;;25.13;;
18657;SDS011;9458;50.942;5.074;2022-08-19T02:14:27;34.90;;;25.42;;
18657;SDS011;9458;50.942;5.074;2022-08-19T02:16:57;33.17;;;24.58;;
18657;SDS011;9458;50.942;5.074;2022-08-19T02:19:24;32.97;;;24.83;;
18657;SDS011;9458;50.942;5.074;2022-08-19T02:21:53;37.70;;;26.65;;
18657;SDS011;9458;50.942;5.074;2022-08-19T02:24:20;30.85;;;24.83;;
18657;SDS011;9458;50.942;5.074;2022-08-19T02:26:48;32.83;;;25.05;;
18657;SDS011;9458;50.942;5.074;2022-08-19T02:29:16;34.70;;;26.05;;
18657;SDS011;9458;50.942;5.074;2022-08-19T02:31:44;34.28;;;26.10;;
18657;SDS011;9458;50.942;5.074;2022-08-19T02:34:14;37.08;;;26.23;;
18657;SDS011;9458;50.942;5.074;2022-08-19T02:36:41;35.53;;;26.30;;
18657;SDS011;9458;50.942;5.074;2022-08-19T02:39:10;36.13;;;26.00;;
18657;SDS011;9458;50.942;5.074;2022-08-19T02:41:37;36.40;;;24.90;;
18657;SDS011;9458;50.942;5.074;2022-08-19T02:44:04;35.65;;;26.25;;
18657;SDS011;9458;50.942;5.074;2022-08-19T02:46:32;34.97;;;26.70;;
18657;SDS011;9458;50.942;5.074;2022-08-19T02:49:02;37.15;;;26.38;;
18657;SDS011;9458;50.942;5.074;2022-08-19T02:51:33;37.25;;;26.35;;
18657;SDS011;9458;50.942;5.074;2022-08-19T02:54:03;35.78;;;24.90;;
18657;SDS011;9458;50.942;5.074;2022-08-19T02:56:33;36.38;;;25.55;;
18657;SDS011;9458;50.942;5.074;2022-08-19T02:59:03;34.95;;;25.52;;
18657;SDS011;9458;50.942;5.074;2022-08-19T03:01:38;39.97;;;27.52;;
18657;SDS011;9458;50.942;5.074;2022-08-19T03:04:16;38.08;;;26.80;;
18657;SDS011;9458;50.942;5.074;2022-08-19T03:06:56;38.38;;;26.17;;
18657;SDS011;9458;50.942;5.074;2022-08-19T03:09:36;41.22;;;27.13;;
18657;SDS011;9458;50.942;5.074;2022-08-19T03:12:05;38.85;;;27.30;;
18657;SDS011;9458;50.942;5.074;2022-08-19T03:14:34;36.92;;;26.17;;
18657;SDS011;9458;50.942;5.074;2022-08-19T03:17:05;39.17;;;27.33;;
18657;SDS011;9458;50.942;5.074;2022-08-19T03:19:34;37.97;;;27.08;;
18657;SDS011;9458;50.942;5.074;2022-08-19T03:22:05;40.53;;;26.83;;
18657;SDS011;9458;50.942;5.074;2022-08-19T03:24:33;39.67;;;27.38;;
18657;SDS011;9458;50.942;5.074;2022-08-19T03:27:03;40.63;;;26.88;;
18657;SDS011;9458;50.942;5.074;2022-08-19T03:29:32;40.55;;;27.20;;
18657;SDS011;9458;50.942;5.074;2022-08-19T03:32:00;40.95;;;27.58;;
18657;SDS011;9458;50.942;5.074;2022-08-19T03:34:33;42.75;;;28.52;;
18657;SDS011;9458;50.942;5.074;2022-08-19T03:37:05;41.05;;;27.60;;
18657;SDS011;9458;50.942;5.074;2022-08-19T03:39:37;40.47;;;27.15;;
18657;SDS011;9458;50.942;5.074;2022-08-19T03:42:08;40.90;;;26.13;;
18657;SDS011;9458;50.942;5.074;2022-08-19T03:44:37;40.63;;;27.33;;
18657;SDS011;9458;50.942;5.074;2022-08-19T03:47:05;42.17;;;27.27;;
18657;SDS011;9458;50.942;5.074;2022-08-19T03:49:33;38.30;;;26.35;;
18657;SDS011;9458;50.942;5.074;2022-08-19T03:52:02;39.28;;;26.63;;
18657;SDS011;9458;50.942;5.074;2022-08-19T03:54:35;40.50;;;26.25;;
18657;SDS011;9458;50.942;5.074;2022-08-19T03:57:05;36.40;;;24.80;;
18657;SDS011;9458;50.942;5.074;2022-08-19T03:59:37;34.55;;;24.08;;
18657;SDS011;9458;50.942;5.074;2022-08-19T04:02:09;34.58;;;25.13;;
18657;SDS011;9458;50.942;5.074;2022-08-19T04:04:38;34.20;;;24.45;;
18657;SDS011;9458;50.942;5.074;2022-08-19T04:07:09;36.90;;;26.33;;
18657;SDS011;9458;50.942;5.074;2022-08-19T04:09:40;38.85;;;25.90;;
18657;SDS011;9458;50.942;5.074;2022-08-19T04:12:10;39.55;;;24.60;;
18657;SDS011;9458;50.942;5.074;2022-08-19T04:14:41;39.47;;;26.15;;
18657;SDS011;9458;50.942;5.074;2022-08-19T04:17:12;37.15;;;26.08;;
18657;SDS011;9458;50.942;5.074;2022-08-19T04:19:39;40.15;;;26.35;;
18657;SDS011;9458;50.942;5.074;2022-08-19T04:22:08;43.65;;;27.33;;
18657;SDS011;9458;50.942;5.074;2022-08-19T04:24:37;42.58;;;25.83;;
18657;SDS011;9458;50.942;5.074;2022-08-19T04:27:08;49.50;;;27.63;;
18657;SDS011;9458;50.942;5.074;2022-08-19T04:29:36;37.92;;;25.73;;
18657;SDS011;9458;50.942;5.074;2022-08-19T04:32:04;41.55;;;27.20;;
18657;SDS011;9458;50.942;5.074;2022-08-19T04:34:32;41.08;;;26.13;;
18657;SDS011;9458;50.942;5.074;2022-08-19T04:37:00;42.00;;;27.33;;
18657;SDS011;9458;50.942;5.074;2022-08-19T04:39:33;40.28;;;26.27;;
18657;SDS011;9458;50.942;5.074;2022-08-19T04:42:21;42.58;;;27.15;;
18657;SDS011;9458;50.942;5.074;2022-08-19T04:45:07;41.15;;;26.33;;
18657;SDS011;9458;50.942;5.074;2022-08-19T04:47:38;43.00;;;26.55;;
18657;SDS011;9458;50.942;5.074;2022-08-19T04:50:08;42.10;;;27.10;;
18657;SDS011;9458;50.942;5.074;2022-08-19T04:52:37;40.63;;;26.55;;
18657;SDS011;9458;50.942;5.074;2022-08-19T04:55:09;41.58;;;26.48;;
18657;SDS011;9458;50.942;5.074;2022-08-19T04:57:38;42.88;;;26.95;;
18657;SDS011;9458;50.942;5.074;2022-08-19T05:00:07;46.25;;;28.42;;
18657;SDS011;9458;50.942;5.074;2022-08-19T05:02:35;41.50;;;27.55;;
18657;SDS011;9458;50.942;5.074;2022-08-19T05:05:04;43.72;;;27.52;;
18657;SDS011;9458;50.942;5.074;2022-08-19T05:07:32;43.80;;;28.35;;
18657;SDS011;9458;50.942;5.074;2022-08-19T05:09:59;45.25;;;27.77;;
18657;SDS011;9458;50.942;5.074;2022-08-19T05:12:30;40.35;;;26.58;;
18657;SDS011;9458;50.942;5.074;2022-08-19T05:14:59;40.08;;;26.48;;
18657;SDS011;9458;50.942;5.074;2022-08-19T05:17:29;40.55;;;25.55;;
18657;SDS011;9458;50.942;5.074;2022-08-19T05:19:57;40.30;;;26.42;;
18657;SDS011;9458;50.942;5.074;2022-08-19T05:22:43;39.72;;;26.65;;
18657;SDS011;9458;50.942;5.074;2022-08-19T05:25:12;40.53;;;26.70;;
18657;SDS011;9458;50.942;5.074;2022-08-19T05:27:43;35.60;;;25.23;;
18657;SDS011;9458;50.942;5.074;2022-08-19T05:30:13;41.75;;;26.02;;
18657;SDS011;9458;50.942;5.074;2022-08-19T05:32:43;36.40;;;25.20;;
18657;SDS011;9458;50.942;5.074;2022-08-19T05:35:11;36.95;;;26.00;;
18657;SDS011;9458;50.942;5.074;2022-08-19T05:37:39;35.13;;;25.17;;
18657;SDS011;9458;50.942;5.074;2022-08-19T05:40:07;33.05;;;24.52;;
18657;SDS011;9458;50.942;5.074;2022-08-19T05:42:35;34.03;;;25.42;;
18657;SDS011;9458;50.942;5.074;2022-08-19T05:45:04;27.80;;;22.30;;
18657;SDS011;9458;50.942;5.074;2022-08-19T05:47:35;27.38;;;21.55;;
18657;SDS011;9458;50.942;5.074;2022-08-19T05:50:03;26.50;;;21.77;;
18657;SDS011;9458;50.942;5.074;2022-08-19T05:52:31;26.38;;;20.83;;
18657;SDS011;9458;50.942;5.074;2022-08-19T05:55:03;28.40;;;20.40;;
18657;SDS011;9458;50.942;5.074;2022-08-19T05:57:31;26.35;;;19.83;;
18657;SDS011;9458;50.942;5.074;2022-08-19T06:00:00;23.73;;;18.20;;
18657;SDS011;9458;50.942;5.074;2022-08-19T06:02:35;24.58;;;19.08;;
18657;SDS011;9458;50.942;5.074;2022-08-19T06:05:03;22.75;;;17.92;;
18657;SDS011;9458;50.942;5.074;2022-08-19T06:07:37;25.33;;;18.38;;
18657;SDS011;9458;50.942;5.074;2022-08-19T06:10:07;22.40;;;18.80;;
18657;SDS011;9458;50.942;5.074;2022-08-19T06:12:37;22.30;;;18.67;;
18657;SDS011;9458;50.942;5.074;2022-08-19T06:15:05;19.95;;;17.35;;
18657;SDS011;9458;50.942;5.074;2022-08-19T06:17:37;20.92;;;16.85;;
18657;SDS011;9458;50.942;5.074;2022-08-19T06:20:09;18.17;;;15.93;;
18657;SDS011;9458;50.942;5.074;2022-08-19T06:22:39;18.10;;;15.48;;
18657;SDS011;9458;50.942;5.074;2022-08-19T06:25:09;19.58;;;15.40;;
18657;SDS011;9458;50.942;5.074;2022-08-19T06:27:37;15.70;;;13.68;;
18657;SDS011;9458;50.942;5.074;2022-08-19T06:30:06;14.85;;;13.27;;
18657;SDS011;9458;50.942;5.074;2022-08-19T06:32:37;16.90;;;13.05;;
18657;SDS011;9458;50.942;5.074;2022-08-19T06:35:05;15.57;;;12.85;;
18657;SDS011;9458;50.942;5.074;2022-08-19T06:37:37;16.17;;;12.48;;
18657;SDS011;9458;50.942;5.074;2022-08-19T06:40:06;15.70;;;12.52;;
18657;SDS011;9458;50.942;5.074;2022-08-19T06:42:36;14.05;;;12.55;;
18657;SDS011;9458;50.942;5.074;2022-08-19T06:45:04;13.40;;;12.00;;
18657;SDS011;9458;50.942;5.074;2022-08-19T06:47:33;13.13;;;10.60;;
18657;SDS011;9458;50.942;5.074;2022-08-19T06:50:03;13.90;;;11.27;;
18657;SDS011;9458;50.942;5.074;2022-08-19T06:52:33;15.63;;;10.85;;
18657;SDS011;9458;50.942;5.074;2022-08-19T06:55:01;13.02;;;10.25;;
18657;SDS011;9458;50.942;5.074;2022-08-19T06:57:31;11.45;;;10.23;;
18657;SDS011;9458;50.942;5.074;2022-08-19T07:00:04;11.43;;;10.05;;
18657;SDS011;9458;50.942;5.074;2022-08-19T07:02:36;11.95;;;9.40;;
18657;SDS011;9458;50.942;5.074;2022-08-19T07:05:07;9.90;;;8.90;;
18657;SDS011;9458;50.942;5.074;2022-08-19T07:07:44;11.85;;;9.13;;
18657;SDS011;9458;50.942;5.074;2022-08-19T07:10:11;10.73;;;9.20;;
18657;SDS011;9458;50.942;5.074;2022-08-19T07:12:42;11.50;;;8.88;;
18657;SDS011;9458;50.942;5.074;2022-08-19T07:15:13;10.32;;;9.10;;
18657;SDS011;9458;50.942;5.074;2022-08-19T07:17:43;9.98;;;8.77;;
18657;SDS011;9458;50.942;5.074;2022-08-19T07:20:15;9.55;;;8.57;;
18657;SDS011;9458;50.942;5.074;2022-08-19T07:22:43;12.23;;;9.23;;
18657;SDS011;9458;50.942;5.074;2022-08-19T07:25:12;9.30;;;8.30;;
18657;SDS011;9458;50.942;5.074;2022-08-19T07:27:41;10.77;;;8.30;;
18657;SDS011;9458;50.942;5.074;2022-08-19T07:30:10;12.30;;;9.38;;
18657;SDS011;9458;50.942;5.074;2022-08-19T07:32:38;12.93;;;9.20;;
18657;SDS011;9458;50.942;5.074;2022-08-19T07:35:10;10.73;;;9.38;;
18657;SDS011;9458;50.942;5.074;2022-08-19T07:37:40;13.85;;;8.85;;
18657;SDS011;9458;50.942;5.074;2022-08-19T07:40:09;13.75;;;12.20;;
18657;SDS011;9458;50.942;5.074;2022-08-19T07:42:38;15.57;;;13.68;;
18657;SDS011;9458;50.942;5.074;2022-08-19T07:45:08;16.15;;;13.63;;
18657;SDS011;9458;50.942;5.074;2022-08-19T07:47:37;18.08;;;14.27;;
18657;SDS011;9458;50.942;5.074;2022-08-19T07:50:06;16.88;;;13.73;;
18657;SDS011;9458;50.942;5.074;2022-08-19T07:52:36;18.48;;;12.93;;
18657;SDS011;9458;50.942;5.074;2022-08-19T07:55:09;15.95;;;12.80;;
18657;SDS011;9458;50.942;5.074;2022-08-19T07:57:38;12.63;;;10.05;;
18657;SDS011;9458;50.942;5.074;2022-08-19T08:00:06;13.35;;;9.70;;
18657;SDS011;9458;50.942;5.074;2022-08-19T08:02:35;12.60;;;8.23;;
18657;SDS011;9458;50.942;5.074;2022-08-19T08:05:04;9.55;;;8.10;;
18657;SDS011;9458;50.942;5.074;2022-08-19T08:07:49;9.20;;;7.50;;
18657;SDS011;9458;50.942;5.074;2022-08-19T08:10:32;10.93;;;8.25;;
18657;SDS011;9458;50.942;5.074;2022-08-19T08:13:10;10.32;;;7.88;;
18657;SDS011;9458;50.942;5.074;2022-08-19T08:15:38;9.50;;;8.48;;
18657;SDS011;9458;50.942;5.074;2022-08-19T08:18:06;9.88;;;7.95;;
18657;SDS011;9458;50.942;5.074;2022-08-19T08:20:35;11.98;;;7.90;;
18657;SDS011;9458;50.942;5.074;2022-08-19T08:23:04;8.93;;;7.45;;
18657;SDS011;9458;50.942;5.074;2022-08-19T08:25:53;8.18;;;6.90;;
18657;SDS011;9458;50.942;5.074;2022-08-19T08:28:26;9.32;;;7.47;;
18657;SDS011;9458;50.942;5.074;2022-08-19T08:30:55;9.15;;;7.80;;
18657;SDS011;9458;50.942;5.074;2022-08-19T08:33:25;10.02;;;7.60;;
18657;SDS011;9458;50.942;5.074;2022-08-19T08:35:55;7.40;;;6.70;;
18657;SDS011;9458;50.942;5.074;2022-08-19T08:38:27;8.48;;;7.53;;
18657;SDS011;9458;50.942;5.074;2022-08-19T08:40:59;7.88;;;6.82;;
18657;SDS011;9458;50.942;5.074;2022-08-19T08:43:34;8.50;;;7.70;;
18657;SDS011;9458;50.942;5.074;2022-08-19T08:46:09;7.80;;;7.10;;
18657;SDS011;9458;50.942;5.074;2022-08-19T08:48:42;7.18;;;6.57;;
18657;SDS011;9458;50.942;5.074;2022-08-19T08:51:16;11.23;;;8.00;;
18657;SDS011;9458;50.942;5.074;2022-08-19T08:53:52;7.40;;;6.03;;
18657;SDS011;9458;50.942;5.074;2022-08-19T08:56:24;6.70;;;6.00;;
18657;SDS011;9458;50.942;5.074;2022-08-19T08:58:56;6.35;;;5.75;;
18657;SDS011;9458;50.942;5.074;2022-08-19T09:01:32;9.43;;;6.40;;
18657;SDS011;9458;50.942;5.074;2022-08-19T09:04:02;7.88;;;5.70;;
18657;SDS011;9458;50.942;5.074;2022-08-19T09:06:32;8.00;;;5.68;;
18657;SDS011;9458;50.942;5.074;2022-08-19T09:09:12;8.85;;;5.75;;
18657;SDS011;9458;50.942;5.074;2022-08-19T09:11:54;5.85;;;4.85;;
18657;SDS011;9458;50.942;5.074;2022-08-19T09:14:32;5.28;;;4.75;;
18657;SDS011;9458;50.942;5.074;2022-08-19T09:17:24;6.28;;;5.57;;
18657;SDS011;9458;50.942;5.074;2022-08-19T09:20:02;6.25;;;5.25;;
18657;SDS011;9458;50.942;5.074;2022-08-19T09:23:16;5.75;;;5.25;;
18657;SDS011;9458;50.942;5.074;2022-08-19T09:26:17;6.60;;;4.80;;
18657;SDS011;9458;50.942;5.074;2022-08-19T09:29:02;5.45;;;5.00;;
18657;SDS011;9458;50.942;5.074;2022-08-19T09:31:57;4.75;;;3.75;;
18657;SDS011;9458;50.942;5.074;2022-08-19T09:34:42;3.63;;;3.33;;
18657;SDS011;9458;50.942;5.074;2022-08-19T09:37:14;3.42;;;3.13;;
18657;SDS011;9458;50.942;5.074;2022-08-19T09:39:47;3.65;;;3.35;;
18657;SDS011;9458;50.942;5.074;2022-08-19T09:42:28;3.53;;;3.22;;
18657;SDS011;9458;50.942;5.074;2022-08-19T09:48:03;3.35;;;2.90;;
18657;SDS011;9458;50.942;5.074;2022-08-19T09:50:31;4.07;;;3.78;;
18657;SDS011;9458;50.942;5.074;2022-08-19T09:53:13;6.30;;;3.08;;
18657;SDS011;9458;50.942;5.074;2022-08-19T09:55:43;4.53;;;2.65;;
18657;SDS011;9458;50.942;5.074;2022-08-19T09:58:11;3.17;;;2.88;;
18657;SDS011;9458;50.942;5.074;2022-08-19T10:00:42;3.63;;;2.88;;
18657;SDS011;9458;50.942;5.074;2022-08-19T10:03:14;3.72;;;3.42;;
18657;SDS011;9458;50.942;5.074;2022-08-19T10:05:51;5.40;;;3.40;;
18657;SDS011;9458;50.942;5.074;2022-08-19T10:08:23;3.55;;;3.17;;
18657;SDS011;9458;50.942;5.074;2022-08-19T10:10:53;3.83;;;3.33;;
18657;SDS011;9458;50.942;5.074;2022-08-19T10:13:28;3.85;;;2.80;;
18657;SDS011;9458;50.942;5.074;2022-08-19T10:16:02;3.30;;;3.10;;
18657;SDS011;9458;50.942;5.074;2022-08-19T10:18:32;4.57;;;2.95;;
18657;SDS011;9458;50.942;5.074;2022-08-19T10:21:05;3.30;;;2.80;;
18657;SDS011;9458;50.942;5.074;2022-08-19T10:23:35;3.60;;;3.30;;
18657;SDS011;9458;50.942;5.074;2022-08-19T10:26:04;3.97;;;3.55;;
18657;SDS011;9458;50.942;5.074;2022-08-19T10:28:33;4.05;;;2.92;;
18657;SDS011;9458;50.942;5.074;2022-08-19T10:31:05;3.40;;;3.10;;
18657;SDS011;9458;50.942;5.074;2022-08-19T10:33:55;3.70;;;3.40;;
18657;SDS011;9458;50.942;5.074;2022-08-19T10:36:24;4.50;;;3.60;;
18657;SDS011;9458;50.942;5.074;2022-08-19T10:38:54;4.43;;;3.38;;
18657;SDS011;9458;50.942;5.074;2022-08-19T10:41:26;5.05;;;3.85;;
18657;SDS011;9458;50.942;5.074;2022-08-19T10:43:56;6.30;;;4.15;;
18657;SDS011;9458;50.942;5.074;2022-08-19T10:46:26;3.58;;;3.30;;
18657;SDS011;9458;50.942;5.074;2022-08-19T10:48:58;3.65;;;3.15;;
18657;SDS011;9458;50.942;5.074;2022-08-19T10:51:27;4.90;;;3.50;;
18657;SDS011;9458;50.942;5.074;2022-08-19T10:54:13;5.75;;;3.58;;
18657;SDS011;9458;50.942;5.074;2022-08-19T10:56:41;3.72;;;3.42;;
18657;SDS011;9458;50.942;5.074;2022-08-19T10:59:17;3.10;;;2.90;;
18657;SDS011;9458;50.942;5.074;2022-08-19T11:01:47;4.75;;;3.90;;
18657;SDS011;9458;50.942;5.074;2022-08-19T11:04:17;4.13;;;3.78;;
18657;SDS011;9458;50.942;5.074;2022-08-19T11:06:45;4.43;;;3.45;;
18657;SDS011;9458;50.942;5.074;2022-08-19T11:09:14;3.85;;;3.55;;
18657;SDS011;9458;50.942;5.074;2022-08-19T11:11:43;5.35;;;4.78;;
18657;SDS011;9458;50.942;5.074;2022-08-19T11:14:13;3.88;;;3.47;;
18657;SDS011;9458;50.942;5.074;2022-08-19T11:16:43;3.75;;;3.45;;
18657;SDS011;9458;50.942;5.074;2022-08-19T11:19:11;4.72;;;3.30;;
18657;SDS011;9458;50.942;5.074;2022-08-19T11:21:43;5.18;;;3.20;;
18657;SDS011;9458;50.942;5.074;2022-08-19T11:24:15;3.60;;;3.30;;
18657;SDS011;9458;50.942;5.074;2022-08-19T11:26:46;4.18;;;3.28;;
18657;SDS011;9458;50.942;5.074;2022-08-19T11:29:15;4.07;;;3.00;;
18657;SDS011;9458;50.942;5.074;2022-08-19T11:31:45;3.53;;;3.00;;
18657;SDS011;9458;50.942;5.074;2022-08-19T11:34:15;4.55;;;3.00;;
18657;SDS011;9458;50.942;5.074;2022-08-19T11:36:46;4.68;;;2.58;;
18657;SDS011;9458;50.942;5.074;2022-08-19T11:39:17;3.55;;;2.92;;
18657;SDS011;9458;50.942;5.074;2022-08-19T11:41:47;4.10;;;2.90;;
18657;SDS011;9458;50.942;5.074;2022-08-19T11:44:15;2.95;;;2.60;;
18657;SDS011;9458;50.942;5.074;2022-08-19T11:46:43;3.30;;;3.10;;
18657;SDS011;9458;50.942;5.074;2022-08-19T11:49:11;3.20;;;2.72;;
18657;SDS011;9458;50.942;5.074;2022-08-19T11:51:39;3.40;;;3.10;;
18657;SDS011;9458;50.942;5.074;2022-08-19T11:54:10;3.25;;;2.95;;
18657;SDS011;9458;50.942;5.074;2022-08-19T11:56:39;3.78;;;3.28;;
18657;SDS011;9458;50.942;5.074;2022-08-19T11:59:08;6.13;;;2.95;;
18657;SDS011;9458;50.942;5.074;2022-08-19T12:01:36;5.30;;;3.28;;
18657;SDS011;9458;50.942;5.074;2022-08-19T12:04:06;4.80;;;2.65;;
18657;SDS011;9458;50.942;5.074;2022-08-19T12:06:33;3.20;;;2.90;;
18657;SDS011;9458;50.942;5.074;2022-08-19T12:09:05;3.10;;;2.80;;
18657;SDS011;9458;50.942;5.074;2022-08-19T12:11:36;3.40;;;3.10;;
18657;SDS011;9458;50.942;5.074;2022-08-19T12:14:04;3.70;;;3.40;;
18657;SDS011;9458;50.942;5.074;2022-08-19T12:16:33;4.53;;;3.60;;
18657;SDS011;9458;50.942;5.074;2022-08-19T12:19:01;3.40;;;3.10;;
18657;SDS011;9458;50.942;5.074;2022-08-19T12:21:32;3.50;;;3.20;;
18657;SDS011;9458;50.942;5.074;2022-08-19T12:24:01;3.33;;;2.90;;
18657;SDS011;9458;50.942;5.074;2022-08-19T12:26:30;4.50;;;3.30;;
18657;SDS011;9458;50.942;5.074;2022-08-19T12:28:59;5.15;;;3.10;;
18657;SDS011;9458;50.942;5.074;2022-08-19T12:31:27;3.35;;;2.90;;
18657;SDS011;9458;50.942;5.074;2022-08-19T12:33:56;4.43;;;2.72;;
18657;SDS011;9458;50.942;5.074;2022-08-19T12:36:24;2.90;;;2.55;;
18657;SDS011;9458;50.942;5.074;2022-08-19T12:38:52;3.95;;;2.20;;
18657;SDS011;9458;50.942;5.074;2022-08-19T12:41:19;2.72;;;2.50;;
18657;SDS011;9458;50.942;5.074;2022-08-19T12:43:47;2.45;;;2.25;;
18657;SDS011;9458;50.942;5.074;2022-08-19T12:46:17;2.58;;;2.38;;
18657;SDS011;9458;50.942;5.074;2022-08-19T12:48:46;2.33;;;1.90;;
18657;SDS011;9458;50.942;5.074;2022-08-19T12:51:14;2.95;;;2.20;;
18657;SDS011;9458;50.942;5.074;2022-08-19T12:53:44;2.72;;;2.50;;
18657;SDS011;9458;50.942;5.074;2022-08-19T12:56:11;1.88;;;1.77;;
18657;SDS011;9458;50.942;5.074;2022-08-19T12:58:40;2.95;;;2.40;;
18657;SDS011;9458;50.942;5.074;2022-08-19T13:01:09;3.00;;;2.10;;
18657;SDS011;9458;50.942;5.074;2022-08-19T13:03:40;2.38;;;2.15;;
18657;SDS011;9458;50.942;5.074;2022-08-19T13:06:08;4.55;;;2.72;;
18657;SDS011;9458;50.942;5.074;2022-08-19T13:08:36;2.20;;;2.00;;
18657;SDS011;9458;50.942;5.074;2022-08-19T13:11:08;3.25;;;2.20;;
18657;SDS011;9458;50.942;5.074;2022-08-19T13:13:37;2.85;;;2.65;;
18657;SDS011;9458;50.942;5.074;2022-08-19T13:16:07;2.83;;;2.40;;
18657;SDS011;9458;50.942;5.074;2022-08-19T13:18:36;3.47;;;2.45;;
18657;SDS011;9458;50.942;5.074;2022-08-19T13:21:06;2.88;;;2.50;;
18657;SDS011;9458;50.942;5.074;2022-08-19T13:23:35;3.47;;;2.60;;
18657;SDS011;9458;50.942;5.074;2022-08-19T13:26:05;2.78;;;2.55;;
18657;SDS011;9458;50.942;5.074;2022-08-19T13:28:38;3.85;;;3.08;;
18657;SDS011;9458;50.942;5.074;2022-08-19T13:31:25;3.92;;;3.13;;
18657;SDS011;9458;50.942;5.074;2022-08-19T13:34:11;5.68;;;3.33;;
18657;SDS011;9458;50.942;5.074;2022-08-19T13:36:43;3.00;;;2.70;;
18657;SDS011;9458;50.942;5.074;2022-08-19T13:39:11;3.72;;;3.42;;
18657;SDS011;9458;50.942;5.074;2022-08-19T13:41:42;3.65;;;3.35;;
18657;SDS011;9458;50.942;5.074;2022-08-19T13:44:13;5.32;;;3.60;;
18657;SDS011;9458;50.942;5.074;2022-08-19T13:46:45;4.13;;;3.15;;
18657;SDS011;9458;50.942;5.074;2022-08-19T13:49:13;3.60;;;3.30;;
18657;SDS011;9458;50.942;5.074;2022-08-19T13:51:41;31.63;;;4.57;;
18657;SDS011;9458;50.942;5.074;2022-08-19T13:54:11;44.30;;;6.70;;
18657;SDS011;9458;50.942;5.074;2022-08-19T13:56:40;64.95;;;8.52;;
18657;SDS011;9458;50.942;5.074;2022-08-19T13:59:08;9.32;;;3.70;;
18657;SDS011;9458;50.942;5.074;2022-08-19T14:01:35;6.30;;;3.42;;
18657;SDS011;9458;50.942;5.074;2022-08-19T14:04:03;4.65;;;3.00;;
18657;SDS011;9458;50.942;5.074;2022-08-19T14:06:32;3.50;;;3.20;;
18657;SDS011;9458;50.942;5.074;2022-08-19T14:09:00;2.80;;;2.60;;
18657;SDS011;9458;50.942;5.074;2022-08-19T14:11:28;4.72;;;2.78;;
18657;SDS011;9458;50.942;5.074;2022-08-19T14:13:56;3.10;;;2.80;;
18657;SDS011;9458;50.942;5.074;2022-08-19T14:16:23;2.83;;;2.63;;
18657;SDS011;9458;50.942;5.074;2022-08-19T14:18:52;3.50;;;2.88;;
18657;SDS011;9458;50.942;5.074;2022-08-19T14:21:20;3.00;;;2.80;;
18657;SDS011;9458;50.942;5.074;2022-08-19T14:23:50;2.95;;;2.70;;
18657;SDS011;9458;50.942;5.074;2022-08-19T14:26:19;4.03;;;3.10;;
18657;SDS011;9458;50.942;5.074;2022-08-19T14:28:48;3.08;;;2.88;;
18657;SDS011;9458;50.942;5.074;2022-08-19T14:31:17;2.60;;;2.42;;
18657;SDS011;9458;50.942;5.074;2022-08-19T14:33:49;3.17;;;2.92;;
18657;SDS011;9458;50.942;5.074;2022-08-19T14:36:17;3.60;;;3.30;;
18657;SDS011;9458;50.942;5.074;2022-08-19T14:38:46;3.13;;;2.92;;
18657;SDS011;9458;50.942;5.074;2022-08-19T14:41:14;3.03;;;2.83;;
18657;SDS011;9458;50.942;5.074;2022-08-19T14:43:46;3.10;;;2.90;;
18657;SDS011;9458;50.942;5.074;2022-08-19T14:46:16;3.45;;;3.10;;
18657;SDS011;9458;50.942;5.074;2022-08-19T14:48:46;4.32;;;3.60;;
18657;SDS011;9458;50.942;5.074;2022-08-19T14:51:16;3.22;;;3.03;;
18657;SDS011;9458;50.942;5.074;2022-08-19T14:53:44;4.15;;;3.00;;
18657;SDS011;9458;50.942;5.074;2022-08-19T14:56:14;2.80;;;2.60;;
18657;SDS011;9458;50.942;5.074;2022-08-19T14:58:46;3.30;;;2.90;;
18657;SDS011;9458;50.942;5.074;2022-08-19T15:01:16;2.97;;;2.70;;
18657;SDS011;9458;50.942;5.074;2022-08-19T15:03:45;2.88;;;2.67;;
18657;SDS011;9458;50.942;5.074;2022-08-19T15:06:13;4.15;;;2.72;;
18657;SDS011;9458;50.942;5.074;2022-08-19T15:08:41;2.80;;;2.60;;
18657;SDS011;9458;50.942;5.074;2022-08-19T15:11:11;3.20;;;2.60;;
18657;SDS011;9458;50.942;5.074;2022-08-19T15:13:41;2.45;;;2.35;;